sensor_id;sensor_type;location;lat;lon;timestamp;pressure;altitude;pressure_sealevel;temperature;humidity
13209;BME280;6669;42.678;23.332;2023-02-15T00:00:37;95726.06;;;0.94;100.00
13209;BME280;6669;42.678;23.332;2023-02-15T00:03:06;95732.09;;;0.93;100.00
13209;BME280;6669;42.678;23.332;2023-02-15T00:05:34;95740.44;;;0.97;100.00
13209;BME280;6669;42.678;23.332;2023-02-15T00:08:02;95731.19;;;0.94;100.00
13209;BME280;6669;42.678;23.332;2023-02-15T00:10:30;95726.56;;;0.85;100.00
13209;BME280;6669;42.678;23.332;2023-02-15T00:12:59;95739.78;;;0.93;100.00
13209;BME280;6669;42.678;23.332;2023-02-15T00:15:27;95745.72;;;0.94;100.00
13209;BME280;6669;42.678;23.332;2023-02-15T00:17:57;95740.50;;;0.95;100.00
13209;BME280;6669;42.678;23.332;2023-02-15T00:20:26;95748.44;;;0.91;100.00
13209;BME280;6669;42.678;23.332;2023-02-15T00:22:54;95747.59;;;0.90;100.00
13209;BME280;6669;42.678;23.332;2023-02-15T00:25:22;95746.63;;;0.93;100.00
13209;BME280;6669;42.678;23.332;2023-02-15T00:27:50;95747.69;;;0.89;100.00
13209;BME280;6669;42.678;23.332;2023-02-15T00:30:18;95748.44;;;0.91;100.00
13209;BME280;6669;42.678;23.332;2023-02-15T00:32:47;95751.81;;;0.91;100.00
13209;BME280;6669;42.678;23.332;2023-02-15T00:35:15;95751.00;;;0.91;100.00
13209;BME280;6669;42.678;23.332;2023-02-15T00:37:45;95754.38;;;0.91;100.00
13209;BME280;6669;42.678;23.332;2023-02-15T00:40:13;95756.03;;;0.92;100.00
13209;BME280;6669;42.678;23.332;2023-02-15T00:42:41;95749.19;;;0.93;100.00
13209;BME280;6669;42.678;23.332;2023-02-15T00:45:09;95752.66;;;0.92;100.00
13209;BME280;6669;42.678;23.332;2023-02-15T00:47:37;95761.34;;;0.89;100.00
13209;BME280;6669;42.678;23.332;2023-02-15T00:50:06;95754.38;;;0.91;100.00
13209;BME280;6669;42.678;23.332;2023-02-15T00:52:34;95746.03;;;0.88;100.00
13209;BME280;6669;42.678;23.332;2023-02-15T00:55:03;95751.09;;;0.89;100.00
13209;BME280;6669;42.678;23.332;2023-02-15T00:57:31;95745.31;;;0.86;100.00
13209;BME280;6669;42.678;23.332;2023-02-15T00:59:59;95751.34;;;0.85;100.00
13209;BME280;6669;42.678;23.332;2023-02-15T01:02:27;95740.34;;;0.82;100.00
13209;BME280;6669;42.678;23.332;2023-02-15T01:04:55;95742.00;;;0.84;100.00
13209;BME280;6669;42.678;23.332;2023-02-15T01:07:23;95740.88;;;0.89;100.00
13209;BME280;6669;42.678;23.332;2023-02-15T01:09:51;95737.56;;;0.87;100.00
13209;BME280;6669;42.678;23.332;2023-02-15T01:12:20;95726.00;;;0.80;100.00
13209;BME280;6669;42.678;23.332;2023-02-15T01:14:48;95745.06;;;0.90;100.00
13209;BME280;6669;42.678;23.332;2023-02-15T01:17:16;95740.88;;;0.89;100.00
13209;BME280;6669;42.678;23.332;2023-02-15T01:19:44;95741.69;;;0.90;100.00
13209;BME280;6669;42.678;23.332;2023-02-15T01:22:11;95738.22;;;0.91;100.00
13209;BME280;6669;42.678;23.332;2023-02-15T01:24:39;95724.75;;;0.87;100.00
13209;BME280;6669;42.678;23.332;2023-02-15T01:27:07;95728.97;;;0.88;100.00
13209;BME280;6669;42.678;23.332;2023-02-15T01:29:36;95730.63;;;0.89;100.00
13209;BME280;6669;42.678;23.332;2023-02-15T01:32:04;95734.25;;;0.85;100.00
13209;BME280;6669;42.678;23.332;2023-02-15T01:34:32;95725.50;;;0.89;100.00
13209;BME280;6669;42.678;23.332;2023-02-15T01:37:00;95732.19;;;0.92;100.00
13209;BME280;6669;42.678;23.332;2023-02-15T01:39:29;95728.31;;;0.85;100.00
13209;BME280;6669;42.678;23.332;2023-02-15T01:41:56;95718.06;;;0.85;100.00
13209;BME280;6669;42.678;23.332;2023-02-15T01:44:48;95734.34;;;0.84;100.00
13209;BME280;6669;42.678;23.332;2023-02-15T01:47:20;95717.97;;;0.86;100.00
13209;BME280;6669;42.678;23.332;2023-02-15T01:49:56;95722.38;;;0.84;100.00
13209;BME280;6669;42.678;23.332;2023-02-15T01:52:26;95703.56;;;0.69;100.00
13209;BME280;6669;42.678;23.332;2023-02-15T01:54:54;95713.47;;;0.75;100.00
13209;BME280;6669;42.678;23.332;2023-02-15T01:57:23;95705.22;;;0.70;100.00
13209;BME280;6669;42.678;23.332;2023-02-15T01:59:57;95704.13;;;0.74;100.00
13209;BME280;6669;42.678;23.332;2023-02-15T02:02:29;95715.28;;;0.73;100.00
13209;BME280;6669;42.678;23.332;2023-02-15T02:04:59;95700.16;;;0.69;100.00
13209;BME280;6669;42.678;23.332;2023-02-15T02:07:32;95717.94;;;0.72;100.00
13209;BME280;6669;42.678;23.332;2023-02-15T02:10:01;95708.41;;;0.74;100.00
13209;BME280;6669;42.678;23.332;2023-02-15T02:12:29;95706.03;;;0.71;100.00
13209;BME280;6669;42.678;23.332;2023-02-15T02:14:59;95708.59;;;0.71;100.00
13209;BME280;6669;42.678;23.332;2023-02-15T02:17:34;95697.78;;;0.65;100.00
13209;BME280;6669;42.678;23.332;2023-02-15T02:20:22;95712.25;;;0.67;100.00
13209;BME280;6669;42.678;23.332;2023-02-15T02:23:14;95719.00;;;0.68;100.00
13209;BME280;6669;42.678;23.332;2023-02-15T02:26:15;95724.84;;;0.70;100.00
13209;BME280;6669;42.678;23.332;2023-02-15T02:29:23;95727.84;;;0.78;100.00
13209;BME280;6669;42.678;23.332;2023-02-15T02:32:25;95724.28;;;0.80;100.00
13209;BME280;6669;42.678;23.332;2023-02-15T02:35:01;95720.81;;;0.81;100.00
13209;BME280;6669;42.678;23.332;2023-02-15T02:37:39;95723.53;;;0.78;100.00
13209;BME280;6669;42.678;23.332;2023-02-15T02:40:13;95724.19;;;0.82;100.00
13209;BME280;6669;42.678;23.332;2023-02-15T02:42:49;95724.19;;;0.82;100.00
13209;BME280;6669;42.678;23.332;2023-02-15T02:45:25;95724.28;;;0.80;100.00
13209;BME280;6669;42.678;23.332;2023-02-15T02:47:59;95722.38;;;0.84;100.00
13209;BME280;6669;42.678;23.332;2023-02-15T02:50:30;95716.50;;;0.82;100.00
13209;BME280;6669;42.678;23.332;2023-02-15T02:52:59;95726.31;;;0.90;100.00
13209;BME280;6669;42.678;23.332;2023-02-15T02:55:30;95722.84;;;0.91;100.00
13209;BME280;6669;42.678;23.332;2023-02-15T02:58:04;95738.03;;;0.94;100.00
13209;BME280;6669;42.678;23.332;2023-02-15T03:00:37;95727.88;;;0.92;100.00
13209;BME280;6669;42.678;23.332;2023-02-15T03:03:12;95732.09;;;0.93;100.00
13209;BME280;6669;42.678;23.332;2023-02-15T03:05:45;95738.69;;;0.97;100.00
13209;BME280;6669;42.678;23.332;2023-02-15T03:08:16;95716.91;;;0.90;100.00
13209;BME280;6669;42.678;23.332;2023-02-15T03:10:49;95748.84;;;0.99;100.00
13209;BME280;6669;42.678;23.332;2023-02-15T03:13:19;95744.22;;;1.06;100.00
13209;BME280;6669;42.678;23.332;2023-02-15T03:15:49;95756.09;;;1.07;100.00
13209;BME280;6669;42.678;23.332;2023-02-15T03:18:38;95758.41;;;1.11;100.00
13209;BME280;6669;42.678;23.332;2023-02-15T03:21:11;95744.03;;;1.09;100.00
13209;BME280;6669;42.678;23.332;2023-02-15T03:23:51;95747.34;;;1.11;100.00
13209;BME280;6669;42.678;23.332;2023-02-15T03:26:21;95749.81;;;1.12;100.00
13209;BME280;6669;42.678;23.332;2023-02-15T03:28:52;95754.03;;;1.13;100.00
13209;BME280;6669;42.678;23.332;2023-02-15T03:31:25;95750.63;;;1.13;100.00
13209;BME280;6669;42.678;23.332;2023-02-15T03:34:00;95752.84;;;1.19;100.00
13209;BME280;6669;42.678;23.332;2023-02-15T03:36:36;95751.47;;;1.13;100.00
13209;BME280;6669;42.678;23.332;2023-02-15T03:39:11;95754.84;;;1.14;100.00
13209;BME280;6669;42.678;23.332;2023-02-15T03:41:45;95752.38;;;1.12;100.00
13209;BME280;6669;42.678;23.332;2023-02-15T03:44:19;95743.78;;;1.13;100.00
13209;BME280;6669;42.678;23.332;2023-02-15T03:46:54;95750.72;;;1.11;100.00
13209;BME280;6669;42.678;23.332;2023-02-15T03:49:27;95741.22;;;1.13;100.00
13209;BME280;6669;42.678;23.332;2023-02-15T03:51:59;95741.94;;;1.16;100.00
13209;BME280;6669;42.678;23.332;2023-02-15T03:54:31;95734.47;;;1.12;100.00
13209;BME280;6669;42.678;23.332;2023-02-15T03:57:13;95748.63;;;1.18;100.00
13209;BME280;6669;42.678;23.332;2023-02-15T04:00:00;95752.94;;;1.18;100.00
13209;BME280;6669;42.678;23.332;2023-02-15T04:03:03;95749.19;;;1.23;100.00
13209;BME280;6669;42.678;23.332;2023-02-15T04:05:33;95748.47;;;1.21;100.00
13209;BME280;6669;42.678;23.332;2023-02-15T04:08:03;95749.19;;;1.23;100.00
13209;BME280;6669;42.678;23.332;2023-02-15T04:10:31;95753.31;;;1.26;100.00
13209;BME280;6669;42.678;23.332;2023-02-15T04:13:17;95751.75;;;1.23;100.00
13209;BME280;6669;42.678;23.332;2023-02-15T04:15:45;95749.53;;;1.17;100.00
13209;BME280;6669;42.678;23.332;2023-02-15T04:18:32;95764.31;;;1.28;100.00
13209;BME280;6669;42.678;23.332;2023-02-15T04:21:19;95764.22;;;1.29;100.00
13209;BME280;6669;42.678;23.332;2023-02-15T04:24:06;95760.38;;;1.22;100.00
13209;BME280;6669;42.678;23.332;2023-02-15T04:26:51;95771.09;;;1.29;100.00
13209;BME280;6669;42.678;23.332;2023-02-15T04:29:20;95783.06;;;1.28;100.00
13209;BME280;6669;42.678;23.332;2023-02-15T04:31:48;95790.75;;;1.28;100.00
13209;BME280;6669;42.678;23.332;2023-02-15T04:34:17;95780.88;;;1.22;100.00
13209;BME280;6669;42.678;23.332;2023-02-15T04:36:45;95785.91;;;1.24;100.00
13209;BME280;6669;42.678;23.332;2023-02-15T04:39:15;95778.31;;;1.22;100.00
13209;BME280;6669;42.678;23.332;2023-02-15T04:41:43;95793.16;;;1.32;100.00
13209;BME280;6669;42.678;23.332;2023-02-15T04:44:12;95795.97;;;1.27;100.00
13209;BME280;6669;42.678;23.332;2023-02-15T04:46:40;95790.41;;;1.35;100.00
13209;BME280;6669;42.678;23.332;2023-02-15T04:49:08;95779.59;;;1.29;100.00
13209;BME280;6669;42.678;23.332;2023-02-15T04:51:36;95783.63;;;1.34;100.00
13209;BME280;6669;42.678;23.332;2023-02-15T04:54:04;95790.59;;;1.32;100.00
13209;BME280;6669;42.678;23.332;2023-02-15T04:56:34;95797.38;;;1.33;100.00
13209;BME280;6669;42.678;23.332;2023-02-15T04:59:04;95776.94;;;1.31;100.00
13209;BME280;6669;42.678;23.332;2023-02-15T05:01:32;95786.38;;;1.30;100.00
13209;BME280;6669;42.678;23.332;2023-02-15T05:04:00;95799.94;;;1.33;100.00
13209;BME280;6669;42.678;23.332;2023-02-15T05:06:29;95800.75;;;1.33;100.00
13209;BME280;6669;42.678;23.332;2023-02-15T05:08:57;95798.63;;;1.25;100.00
13209;BME280;6669;42.678;23.332;2023-02-15T05:11:26;95802.56;;;1.31;100.00
13209;BME280;6669;42.678;23.332;2023-02-15T05:13:55;95798.28;;;1.32;100.00
13209;BME280;6669;42.678;23.332;2023-02-15T05:16:23;95807.28;;;1.39;100.00
13209;BME280;6669;42.678;23.332;2023-02-15T05:18:52;95805.88;;;1.33;100.00
13209;BME280;6669;42.678;23.332;2023-02-15T05:21:20;95805.69;;;1.36;100.00
13209;BME280;6669;42.678;23.332;2023-02-15T05:23:48;95812.22;;;1.42;100.00
13209;BME280;6669;42.678;23.332;2023-02-15T05:26:17;95811.47;;;1.40;100.00
13209;BME280;6669;42.678;23.332;2023-02-15T05:29:05;95818.91;;;1.44;100.00
13209;BME280;6669;42.678;23.332;2023-02-15T05:31:33;95823.38;;;1.41;100.00
13209;BME280;6669;42.678;23.332;2023-02-15T05:34:02;95825.47;;;1.34;100.00
13209;BME280;6669;42.678;23.332;2023-02-15T05:36:30;95826.03;;;1.39;100.00
13209;BME280;6669;42.678;23.332;2023-02-15T05:38:57;95828.50;;;1.41;100.00
13209;BME280;6669;42.678;23.332;2023-02-15T05:41:25;95814.97;;;1.39;100.00
13209;BME280;6669;42.678;23.332;2023-02-15T05:43:54;95832.19;;;1.51;100.00
13209;BME280;6669;42.678;23.332;2023-02-15T05:46:24;95829.97;;;1.45;100.00
13209;BME280;6669;42.678;23.332;2023-02-15T05:48:52;95836.22;;;1.55;100.00
13209;BME280;6669;42.678;23.332;2023-02-15T05:51:20;95833.94;;;1.51;100.00
13209;BME280;6669;42.678;23.332;2023-02-15T05:53:47;95836.16;;;1.57;100.00
13209;BME280;6669;42.678;23.332;2023-02-15T05:56:15;95830.75;;;1.61;100.00
13209;BME280;6669;42.678;23.332;2023-02-15T05:58:44;95819.38;;;1.51;100.00
13209;BME280;6669;42.678;23.332;2023-02-15T06:01:13;95818.28;;;1.55;100.00
13209;BME280;6669;42.678;23.332;2023-02-15T06:03:43;95837.53;;;1.62;100.00
13209;BME280;6669;42.678;23.332;2023-02-15T06:06:12;95834.25;;;1.60;100.00
13209;BME280;6669;42.678;23.332;2023-02-15T06:08:40;95839.09;;;1.65;100.00
13209;BME280;6669;42.678;23.332;2023-02-15T06:11:08;95820.22;;;1.52;100.00
13209;BME280;6669;42.678;23.332;2023-02-15T06:13:36;95823.50;;;1.54;100.00
13209;BME280;6669;42.678;23.332;2023-02-15T06:16:05;95831.59;;;1.62;100.00
13209;BME280;6669;42.678;23.332;2023-02-15T06:18:33;95839.00;;;1.67;100.00
13209;BME280;6669;42.678;23.332;2023-02-15T06:21:02;95841.66;;;1.65;100.00
13209;BME280;6669;42.678;23.332;2023-02-15T06:23:30;95850.34;;;1.62;100.00
13209;BME280;6669;42.678;23.332;2023-02-15T06:25:58;95847.53;;;1.67;100.00
13209;BME280;6669;42.678;23.332;2023-02-15T06:28:27;95848.34;;;1.68;100.00
13209;BME280;6669;42.678;23.332;2023-02-15T06:30:55;95838.38;;;1.63;100.00
13209;BME280;6669;42.678;23.332;2023-02-15T06:33:23;95839.84;;;1.67;100.00
13209;BME280;6669;42.678;23.332;2023-02-15T06:35:51;95844.78;;;1.70;100.00
13209;BME280;6669;42.678;23.332;2023-02-15T06:38:20;95848.81;;;1.74;100.00
13209;BME280;6669;42.678;23.332;2023-02-15T06:40:48;95850.56;;;1.74;100.00
13209;BME280;6669;42.678;23.332;2023-02-15T06:43:16;95848.91;;;1.73;100.00
13209;BME280;6669;42.678;23.332;2023-02-15T06:45:44;95845.44;;;1.74;100.00
13209;BME280;6669;42.678;23.332;2023-02-15T06:48:12;95842.72;;;1.77;100.00
13209;BME280;6669;42.678;23.332;2023-02-15T06:50:40;95859.22;;;1.87;100.00
13209;BME280;6669;42.678;23.332;2023-02-15T06:53:08;95849.13;;;1.84;100.00
13209;BME280;6669;42.678;23.332;2023-02-15T06:55:38;95863.59;;;1.85;100.00
13209;BME280;6669;42.678;23.332;2023-02-15T06:58:06;95846.75;;;1.81;100.00
13209;BME280;6669;42.678;23.332;2023-02-15T07:00:33;95850.97;;;1.82;100.00
13209;BME280;6669;42.678;23.332;2023-02-15T07:03:01;95836.50;;;1.81;100.00
13209;BME280;6669;42.678;23.332;2023-02-15T07:05:33;95853.16;;;1.88;100.00
13209;BME280;6669;42.678;23.332;2023-02-15T07:08:01;95850.00;;;1.99;100.00
13209;BME280;6669;42.678;23.332;2023-02-15T07:10:29;95846.63;;;2.13;100.00
13209;BME280;6669;42.678;23.332;2023-02-15T07:12:59;95846.06;;;2.08;100.00
13209;BME280;6669;42.678;23.332;2023-02-15T07:15:26;95848.44;;;2.11;100.00
13209;BME280;6669;42.678;23.332;2023-02-15T07:17:53;95859.34;;;2.15;100.00
13209;BME280;6669;42.678;23.332;2023-02-15T07:20:23;95848.28;;;2.14;100.00
13209;BME280;6669;42.678;23.332;2023-02-15T07:22:51;95861.00;;;2.30;100.00
13209;BME280;6669;42.678;23.332;2023-02-15T07:25:20;95833.53;;;2.18;100.00
13209;BME280;6669;42.678;23.332;2023-02-15T07:27:48;95860.56;;;2.38;100.00
13209;BME280;6669;42.678;23.332;2023-02-15T07:30:17;95859.75;;;2.52;100.00
13209;BME280;6669;42.678;23.332;2023-02-15T07:32:46;95847.66;;;2.39;100.00
13209;BME280;6669;42.678;23.332;2023-02-15T07:35:36;95847.00;;;2.36;100.00
13209;BME280;6669;42.678;23.332;2023-02-15T07:38:04;95854.88;;;2.33;100.00
13209;BME280;6669;42.678;23.332;2023-02-15T07:40:32;95840.22;;;2.35;100.00
13209;BME280;6669;42.678;23.332;2023-02-15T07:43:00;95846.09;;;2.51;100.00
13209;BME280;6669;42.678;23.332;2023-02-15T07:45:29;95844.06;;;2.56;100.00
13209;BME280;6669;42.678;23.332;2023-02-15T07:47:59;95850.88;;;2.57;100.00
13209;BME280;6669;42.678;23.332;2023-02-15T07:50:27;95849.78;;;2.47;100.00
13209;BME280;6669;42.678;23.332;2023-02-15T07:52:55;95838.09;;;2.41;100.00
13209;BME280;6669;42.678;23.332;2023-02-15T07:55:23;95840.13;;;2.51;100.00
13209;BME280;6669;42.678;23.332;2023-02-15T07:57:52;95835.38;;;2.59;100.00
13209;BME280;6669;42.678;23.332;2023-02-15T08:00:21;95842.06;;;2.61;100.00
13209;BME280;6669;42.678;23.332;2023-02-15T08:02:53;95812.47;;;2.56;100.00
13209;BME280;6669;42.678;23.332;2023-02-15T08:05:36;95840.75;;;2.54;100.00
13209;BME280;6669;42.678;23.332;2023-02-15T08:08:04;95848.28;;;2.57;100.00
13209;BME280;6669;42.678;23.332;2023-02-15T08:10:32;95844.06;;;2.56;100.00
13209;BME280;6669;42.678;23.332;2023-02-15T08:13:18;95859.19;;;2.47;100.00
13209;BME280;6669;42.678;23.332;2023-02-15T08:15:49;95855.97;;;2.28;100.00
13209;BME280;6669;42.678;23.332;2023-02-15T08:18:19;95843.25;;;2.41;100.00
13209;BME280;6669;42.678;23.332;2023-02-15T08:20:49;95846.44;;;2.59;100.00
13209;BME280;6669;42.678;23.332;2023-02-15T08:23:20;95849.66;;;2.63;100.00
13209;BME280;6669;42.678;23.332;2023-02-15T08:25:48;95837.56;;;2.65;100.00
13209;BME280;6669;42.678;23.332;2023-02-15T08:28:16;95858.00;;;2.67;100.00
13209;BME280;6669;42.678;23.332;2023-02-15T08:30:44;95845.09;;;2.54;100.00
13209;BME280;6669;42.678;23.332;2023-02-15T08:33:12;95844.44;;;2.50;100.00
13209;BME280;6669;42.678;23.332;2023-02-15T08:35:42;95845.91;;;2.54;100.00
13209;BME280;6669;42.678;23.332;2023-02-15T08:38:09;95841.69;;;2.53;100.00
13209;BME280;6669;42.678;23.332;2023-02-15T08:40:37;95852.31;;;2.61;100.00
13209;BME280;6669;42.678;23.332;2023-02-15T08:43:05;95843.78;;;2.75;100.00
13209;BME280;6669;42.678;23.332;2023-02-15T08:45:33;95850.22;;;2.83;100.00
13209;BME280;6669;42.678;23.332;2023-02-15T08:48:01;95857.06;;;2.97;100.00
13209;BME280;6669;42.678;23.332;2023-02-15T08:50:29;95864.94;;;2.93;100.00
13209;BME280;6669;42.678;23.332;2023-02-15T08:52:58;95861.28;;;2.83;100.00
13209;BME280;6669;42.678;23.332;2023-02-15T08:55:26;95857.97;;;2.96;100.00
13209;BME280;6669;42.678;23.332;2023-02-15T08:57:54;95866.94;;;3.03;100.00
13209;BME280;6669;42.678;23.332;2023-02-15T09:00:22;95860.59;;;3.08;100.00
13209;BME280;6669;42.678;23.332;2023-02-15T09:02:51;95865.81;;;3.21;100.00
13209;BME280;6669;42.678;23.332;2023-02-15T09:05:19;95862.41;;;3.21;100.00
13209;BME280;6669;42.678;23.332;2023-02-15T09:07:47;95866.34;;;3.26;100.00
13209;BME280;6669;42.678;23.332;2023-02-15T09:10:17;95874.63;;;3.44;100.00
13209;BME280;6669;42.678;23.332;2023-02-15T09:12:45;95874.25;;;3.23;100.00
13209;BME280;6669;42.678;23.332;2023-02-15T09:15:13;95872.78;;;3.19;100.00
13209;BME280;6669;42.678;23.332;2023-02-15T09:17:41;95851.84;;;3.25;100.00
13209;BME280;6669;42.678;23.332;2023-02-15T09:20:09;95847.72;;;3.50;100.00
13209;BME280;6669;42.678;23.332;2023-02-15T09:22:37;95855.22;;;3.53;100.00
13209;BME280;6669;42.678;23.332;2023-02-15T09:25:05;95853.50;;;3.54;100.00
13209;BME280;6669;42.678;23.332;2023-02-15T09:27:35;95861.66;;;3.46;100.00
13209;BME280;6669;42.678;23.332;2023-02-15T09:30:03;95869.38;;;3.46;100.00
13209;BME280;6669;42.678;23.332;2023-02-15T09:32:31;95874.19;;;3.38;100.00
13209;BME280;6669;42.678;23.332;2023-02-15T09:34:59;95866.78;;;3.33;100.00
13209;BME280;6669;42.678;23.332;2023-02-15T09:37:27;95866.75;;;3.48;100.00
13209;BME280;6669;42.678;23.332;2023-02-15T09:39:55;95862.19;;;3.51;100.00
13209;BME280;6669;42.678;23.332;2023-02-15T09:48:36;95850.81;;;3.55;100.00
13209;BME280;6669;42.678;23.332;2023-02-15T09:51:25;95856.31;;;3.76;100.00
13209;BME280;6669;42.678;23.332;2023-02-15T09:54:06;95850.28;;;3.90;100.00
13209;BME280;6669;42.678;23.332;2023-02-15T09:56:39;95846.47;;;3.83;100.00
13209;BME280;6669;42.678;23.332;2023-02-15T09:59:17;95866.22;;;3.96;100.00
13209;BME280;6669;42.678;23.332;2023-02-15T10:01:55;95852.56;;;3.95;100.00
13209;BME280;6669;42.678;23.332;2023-02-15T10:04:42;95847.31;;;3.97;100.00
13209;BME280;6669;42.678;23.332;2023-02-15T10:07:27;95846.47;;;3.83;100.00
13209;BME280;6669;42.678;23.332;2023-02-15T10:10:14;95855.78;;;4.24;100.00
13209;BME280;6669;42.678;23.332;2023-02-15T10:15:53;95852.38;;;4.11;100.00
13209;BME280;6669;42.678;23.332;2023-02-15T10:18:39;95844.97;;;4.06;100.00
13209;BME280;6669;42.678;23.332;2023-02-15T10:21:19;95842.38;;;3.93;100.00
13209;BME280;6669;42.678;23.332;2023-02-15T10:24:02;95847.56;;;3.79;100.00
13209;BME280;6669;42.678;23.332;2023-02-15T10:26:40;95840.91;;;3.89;100.00
13209;BME280;6669;42.678;23.332;2023-02-15T10:29:23;95836.47;;;3.79;100.00
13209;BME280;6669;42.678;23.332;2023-02-15T10:32:01;95827.44;;;3.99;100.00
13209;BME280;6669;42.678;23.332;2023-02-15T10:34:37;95834.97;;;4.28;100.00
13209;BME280;6669;42.678;23.332;2023-02-15T10:37:23;95848.56;;;4.04;100.00
13209;BME280;6669;42.678;23.332;2023-02-15T10:40:03;95829.94;;;4.13;100.00
13209;BME280;6669;42.678;23.332;2023-02-15T10:42:44;95833.84;;;4.19;100.00
13209;BME280;6669;42.678;23.332;2023-02-15T10:45:24;95834.78;;;4.18;100.00
13209;BME280;6669;42.678;23.332;2023-02-15T10:48:10;95816.75;;;4.18;100.00
13209;BME280;6669;42.678;23.332;2023-02-15T10:50:48;95817.69;;;4.30;100.00
13209;BME280;6669;42.678;23.332;2023-02-15T10:53:26;95830.75;;;4.27;100.00
13209;BME280;6669;42.678;23.332;2023-02-15T10:56:04;95806.13;;;4.22;100.00
13209;BME280;6669;42.678;23.332;2023-02-15T10:58:42;95814.50;;;4.89;100.00
13209;BME280;6669;42.678;23.332;2023-02-15T11:01:19;95805.25;;;5.35;100.00
13209;BME280;6669;42.678;23.332;2023-02-15T11:04:09;95831.66;;;5.38;100.00
13209;BME280;6669;42.678;23.332;2023-02-15T11:06:44;95812.41;;;5.67;100.00
13209;BME280;6669;42.678;23.332;2023-02-15T11:09:18;95809.25;;;5.99;100.00
13209;BME280;6669;42.678;23.332;2023-02-15T11:11:50;95815.22;;;5.99;100.00
13209;BME280;6669;42.678;23.332;2023-02-15T11:14:35;95804.13;;;5.75;100.00
13209;BME280;6669;42.678;23.332;2023-02-15T11:17:10;95812.97;;;5.59;100.00
13209;BME280;6669;42.678;23.332;2023-02-15T11:19:42;95811.56;;;5.55;100.00
13209;BME280;6669;42.678;23.332;2023-02-15T11:22:15;95829.69;;;5.53;100.00
13209;BME280;6669;42.678;23.332;2023-02-15T11:24:45;95814.16;;;5.66;100.00
13209;BME280;6669;42.678;23.332;2023-02-15T11:27:20;95816.22;;;5.85;100.00
13209;BME280;6669;42.678;23.332;2023-02-15T11:29:55;95799.72;;;5.88;100.00
13209;BME280;6669;42.678;23.332;2023-02-15T11:32:27;95823.47;;;5.69;100.00
13209;BME280;6669;42.678;23.332;2023-02-15T11:34:59;95793.53;;;5.66;100.00
13209;BME280;6669;42.678;23.332;2023-02-15T11:37:34;95808.06;;;6.03;100.00
13209;BME280;6669;42.678;23.332;2023-02-15T11:40:19;95809.03;;;6.25;100.00
13209;BME280;6669;42.678;23.332;2023-02-15T11:42:49;95800.34;;;6.03;100.00
13209;BME280;6669;42.678;23.332;2023-02-15T11:45:23;95806.44;;;6.02;100.00
13209;BME280;6669;42.678;23.332;2023-02-15T11:47:53;95790.84;;;6.03;100.00
13209;BME280;6669;42.678;23.332;2023-02-15T11:50:23;95786.53;;;6.49;100.00
13209;BME280;6669;42.678;23.332;2023-02-15T11:52:52;95777.00;;;6.50;100.00
13209;BME280;6669;42.678;23.332;2023-02-15T11:55:25;95771.91;;;7.05;100.00
13209;BME280;6669;42.678;23.332;2023-02-15T11:57:59;95768.13;;;7.09;100.00
13209;BME280;6669;42.678;23.332;2023-02-15T12:00:34;95764.25;;;6.92;100.00
13209;BME280;6669;42.678;23.332;2023-02-15T12:03:09;95756.91;;;6.87;100.00
13209;BME280;6669;42.678;23.332;2023-02-15T12:05:42;95754.16;;;7.33;100.00
13209;BME280;6669;42.678;23.332;2023-02-15T12:08:21;95764.28;;;6.81;100.00
13209;BME280;6669;42.678;23.332;2023-02-15T12:10:58;95747.19;;;7.12;100.00
13209;BME280;6669;42.678;23.332;2023-02-15T12:13:29;95746.91;;;6.83;100.00
13209;BME280;6669;42.678;23.332;2023-02-15T12:15:58;95740.88;;;7.05;100.00
13209;BME280;6669;42.678;23.332;2023-02-15T12:18:38;95739.47;;;7.55;100.00
13209;BME280;6669;42.678;23.332;2023-02-15T12:21:09;95749.63;;;7.14;100.00
13209;BME280;6669;42.678;23.332;2023-02-15T12:23:42;95743.88;;;6.78;100.00
13209;BME280;6669;42.678;23.332;2023-02-15T12:26:13;95746.06;;;7.26;100.00
13209;BME280;6669;42.678;23.332;2023-02-15T12:28:42;95746.94;;;7.15;100.00
13209;BME280;6669;42.678;23.332;2023-02-15T12:31:20;95744.41;;;7.04;100.00
13209;BME280;6669;42.678;23.332;2023-02-15T12:33:51;95733.47;;;7.00;100.00
13209;BME280;6669;42.678;23.332;2023-02-15T12:36:22;95732.91;;;6.97;100.00
13209;BME280;6669;42.678;23.332;2023-02-15T12:39:04;95725.72;;;7.00;100.00
13209;BME280;6669;42.678;23.332;2023-02-15T12:41:34;95713.53;;;7.66;100.00
13209;BME280;6669;42.678;23.332;2023-02-15T12:44:09;95711.78;;;8.28;99.99
13209;BME280;6669;42.678;23.332;2023-02-15T12:46:56;95712.13;;;8.35;96.32
13209;BME280;6669;42.678;23.332;2023-02-15T12:49:25;95701.75;;;8.04;96.09
13209;BME280;6669;42.678;23.332;2023-02-15T12:51:55;95712.97;;;8.14;96.67
13209;BME280;6669;42.678;23.332;2023-02-15T12:54:33;95698.59;;;7.69;98.57
13209;BME280;6669;42.678;23.332;2023-02-15T12:57:19;95701.00;;;8.23;98.09
13209;BME280;6669;42.678;23.332;2023-02-15T12:59:49;95705.94;;;8.26;95.64
13209;BME280;6669;42.678;23.332;2023-02-15T13:02:23;95709.53;;;8.35;93.26
13209;BME280;6669;42.678;23.332;2023-02-15T13:04:53;95701.72;;;8.25;94.14
13209;BME280;6669;42.678;23.332;2023-02-15T13:07:21;95709.28;;;8.17;94.52
13209;BME280;6669;42.678;23.332;2023-02-15T13:09:50;95698.69;;;8.20;94.38
13209;BME280;6669;42.678;23.332;2023-02-15T13:12:21;95707.69;;;8.26;93.65
13209;BME280;6669;42.678;23.332;2023-02-15T13:14:54;95698.31;;;8.25;92.92
13209;BME280;6669;42.678;23.332;2023-02-15T13:17:25;95705.56;;;7.79;95.09
13209;BME280;6669;42.678;23.332;2023-02-15T13:19:58;95671.75;;;8.01;95.22
13209;BME280;6669;42.678;23.332;2023-02-15T13:22:33;95700.66;;;8.07;94.19
13209;BME280;6669;42.678;23.332;2023-02-15T13:25:12;95691.31;;;7.84;96.63
13209;BME280;6669;42.678;23.332;2023-02-15T13:27:43;95684.81;;;8.21;96.51
13209;BME280;6669;42.678;23.332;2023-02-15T13:30:23;95699.69;;;8.39;94.01
13209;BME280;6669;42.678;23.332;2023-02-15T13:32:55;95696.56;;;8.04;94.34
13209;BME280;6669;42.678;23.332;2023-02-15T13:35:26;95692.13;;;7.85;96.45